Aviation-Friends-Hamburg. Das neue Portal der Airbus-Freunde für Hamburg und Norddeutschland

Normale Version: Runwaykonfiguration
Du siehst gerade eine vereinfachte Darstellung unserer Inhalte. Normale Ansicht mit richtiger Formatierung.
Aktuelle Runwaykonfiguration werden hier gepostet.
EDDH/HAM am 20.04.2018 - 0820

Landing: 15

Takeoff : 23

Gruß

Helmut

Data at: 0619 UTC 20 Apr 2018
METAR for:
EDDH (Hamburg Arpt, --, DL)
Text:
EDDH 200550Z 15006KT CAVOK 16/11 Q1023 NOSIG
Temperature:
16.0°C ( 61°F)
Dewpoint:
11.0°C ( 52°F) [RH = 72%]
Pressure (altimeter):
30.21 inches Hg (1023.0 mb)
Winds:
from the SSE (150 degrees) at 7 MPH (6 knots; 3.1 m/s)
Visibility:
6 or more sm (10+ km)
Ceiling:
ceiling and visibility are OK
Clouds:
unknown

Zeit: 08:19 (06:19 UTC)
Prognose
Neuester Wetterbericht von vor 1 Stunde und 19 Minuten, um 05:00 UTC
Gültige Prognose vom 20 um 06 UTC bis 21 um 12 UTC
Wind 5 kt aus Südost
Sichtweite 10 km oder mehr
keine Wolken unter 1500 m und keine Kumulonimbus oder Gewitterwolken
Übergehend zu
vom 20 um 07 UTC bis 20 um 10 UTC

Wind 8 kt aus Südwest
Übergehend zu
vom 20 um 13 UTC bis 20 um 16 UTC

Wind 6 kt aus West/Nordwest
TAF: EDDH 200500Z 2006/2112 14005KT CAVOK BECMG 2007/2010 22008KT BECMG 2013/2016 30006KT